^^

Meteo Aereoporti Centro-Italia

 

 
LIRZ - Perugia S.Egidio (208 m.)
Dati ricevuti: 25/03/2017 13:50
Qualche nuvola
Qualche nuvola
 Vento da SSW
Vento: SSW 11 km/h
TEMPERATURA: 23°C
P.to di Rugiada: 4°C
Umidità: 29%
Pressione: 1019 hPa
Nuvole: Qualche nuvola
Visibilità: 10 km
Dettagli Nuvole: Qualche nuvola 1219 m
2017/03/25 12:50 LIRZ 251250Z 21006KT 140V240 9999 FEW040 23/04 Q1019
 
LIPY - Ancona Falconara (12 m.)
Dati ricevuti: 25/03/2017 13:50
Foschia, Poco nuvoloso
Foschia, Poco nuvoloso
 Vento da NNE
Vento: NNE 13 km/h
TEMPERATURA: 15°C
P.to di Rugiada: 11°C
Umidità: 77%
Pressione: 1020 hPa
Condizioni generali: Foschia
Nuvole: Poco nuvoloso
Visibilità: 5 km
2017/03/25 12:50 LIPY 251250Z 03007KT 360V060 5000 BR NSC 15/11 Q1020
 
LIPR - Rimini Miramare (12 m.)
Dati ricevuti: 25/03/2017 14:15
Foschia, Poco nuvoloso
Foschia, Poco nuvoloso
 Vento da ENE
Vento: ENE 13 km/h
TEMPERATURA: 15°C
P.to di Rugiada: 13°C
Umidità: 88%
Pressione: 1020 hPa
Condizioni generali: Foschia
Nuvole: Poco nuvoloso
Visibilità: 3 km
2017/03/25 13:15 LIPR 251315Z 07007KT 2500 BR NSC 15/13 Q1020
 
LIRF - Roma Fiumicino (2 m.)
Dati ricevuti: 25/03/2017 14:20
Sereno
Sereno
 Vento da SSW
Vento: SSW 15 km/h
TEMPERATURA: 20°C
P.to di Rugiada: 9°C
Umidità: 49%
Pressione: 1020 hPa
Condizioni generali: Sereno
Visibilità: oltre 10 km
2017/03/25 13:20 LIRF 251320Z 21008KT 170V240 CAVOK 20/09 Q1020 NOSIG
 
LIRA - Roma Ciampino (129 m.)
Dati ricevuti: 25/03/2017 14:20
Sereno
Sereno
 Vento da S
Vento: S 19 km/h
TEMPERATURA: 20°C
P.to di Rugiada: 9°C
Umidità: 49%
Pressione: 1019 hPa
Condizioni generali: Sereno
Visibilità: oltre 10 km
2017/03/25 13:20 LIRA 251320Z 19010KT 160V220 CAVOK 20/09 Q1019
 
LIRU - Roma Urbe (17 m.)
Dati ricevuti: 25/03/2017 13:50
Sereno
Sereno
 Vento da SW
Vento: SW 19 km/h
TEMPERATURA: 21°C
P.to di Rugiada: 10°C
Umidità: 50%
Pressione: 1020 hPa
Condizioni generali: Sereno
Visibilità: oltre 10 km
2017/03/25 12:50 LIRU 251250Z 22010KT CAVOK 21/10 Q1020
 
LIVF - Frontone (570 m.)
Dati ricevuti: 25/03/2017 07:55
Dati non aggiornati
Sereno
Sereno
 Vento da SSE
Vento: SSE 4 km/h
TEMPERATURA: 11°C
P.to di Rugiada: 8°C
Umidità: 82%
Pressione: 1022 hPa
Condizioni generali: Sereno
Visibilità: oltre 10 km
2017/03/25 06:55 LIVF 250655Z 15002KT CAVOK 11/08 Q1022 RMK SKC MON LIB VAL FOSCHIA SKC SUP DIM VIS MIN 9999
 
LIRQ - Firenze Peretola (40 m.)
Dati ricevuti: 25/03/2017 14:20
Qualche nuvola
Qualche nuvola
 Vento da direzione variabile
Vento: direzione variabile 7 km/h
TEMPERATURA: 24°C
P.to di Rugiada: 8°C
Umidità: 36%
Pressione: 1017 hPa
Nuvole: Qualche nuvola
Visibilità: 10 km
Dettagli Nuvole: Qualche nuvola 1219 m
2017/03/25 13:20 LIRQ 251320Z VRB04KT 9999 FEW040 24/08 Q1017
 
LIBP - Pescara (10 m.)
Dati ricevuti: 25/03/2017 12:50
Dati non aggiornati
Sereno
Sereno
 Vento da NE
Vento: NE 17 km/h
TEMPERATURA: 19°C
P.to di Rugiada: 9°C
Umidità: 52%
Pressione: 1021 hPa
Condizioni generali: Sereno
Visibilità: oltre 10 km
2017/03/25 11:50 LIBP 251150Z 04009KT CAVOK 19/09 Q1021
 
LIRV - Viterbo (300 m.)
Dati ricevuti: 25/03/2017 13:55
Qualche nuvola
Qualche nuvola
 Vento da SSW
Vento: SSW 17 km/h
TEMPERATURA: 21°C
P.to di Rugiada: 6°C
Umidità: 38%
Pressione: 1020 hPa
Nuvole: Qualche nuvola
Visibilità: 10 km
Dettagli Nuvole: Qualche nuvola 914 m
2017/03/25 12:55 LIRV 251255Z 20009KT 9999 FEW030 21/06 Q1020
 
LIQN - Rieti (389 m.)
Dati ricevuti: 25/03/2017 13:50
Sereno
Sereno
 Vento da WSW
Vento: WSW 11 km/h
TEMPERATURA: 22°C
P.to di Rugiada: 4°C
Umidità: 31%
Pressione: 1019 hPa
Condizioni generali: Sereno
Visibilità: oltre 10 km
2017/03/25 12:50 LIQN 251250Z 24006KT CAVOK 22/04 Q1019
 
LIRG - Guidonia -RM- (88 m.)
Dati ricevuti: 24/03/2017 18:55
Dati non aggiornati
Sereno
Sereno
 Vento da WSW
Vento: WSW 6 km/h
TEMPERATURA: 17°C
P.to di Rugiada: 12°C
Umidità: 73%
Pressione: 1021 hPa
Condizioni generali: Sereno
Visibilità: oltre 10 km
2017/03/24 17:55 LIRG 241755Z 24003KT CAVOK 17/12 Q1021
 
LIRK - Terminillo -RI-(1874 m.)
Dati ricevuti: 06/03/2017 20:55
Dati non aggiornati

 Vento da NNW
Vento: NNW 13 km/h, Raffica: 33 km/h
2017/03/06 19:55 LIRK 061955Z AUTO 34007G18KT //// ///// Q////
 
LIPK - Forlì (27 m.)
Dati ricevuti: 24/03/2017 17:50
Dati non aggiornati
Sereno
Sereno
 Vento da ENE
Vento: ENE 7 km/h
TEMPERATURA: 17°C
P.to di Rugiada: 7°C
Umidità: 52%
Pressione: 1022 hPa
Condizioni generali: Sereno
Visibilità: oltre 10 km
2017/03/24 16:50 LIPK 241650Z 06004KT CAVOK 17/07 Q1022
 
LIRS - Grosseto (5 m.)
Dati ricevuti: 25/03/2017 13:55
Qualche nuvola
Qualche nuvola
 Vento da SSW
Vento: SSW 26 km/h
TEMPERATURA: 19°C
P.to di Rugiada: 7°C
Umidità: 46%
Pressione: 1019 hPa
Nuvole: Qualche nuvola
Visibilità: 10 km
Dettagli Nuvole: Qualche nuvola 1219 m
2017/03/25 12:55 LIRS 251255Z 20014KT 9999 FEW040 19/07 Q1019
 
LIRP - Pisa S.Giusto (2 m.)
Dati ricevuti: 25/03/2017 14:15
Molto nuvoloso
Molto nuvoloso
 Vento da SW
Vento: SW 26 km/h
TEMPERATURA: 19°C
P.to di Rugiada: 8°C
Umidità: 49%
Pressione: 1019 hPa
Nuvole: Molto nuvoloso
Visibilità: 10 km
Dettagli Nuvole: Qualche nuvola 1524 m
Molto nuvoloso 1829 m
2017/03/25 13:15 LIRP 251315Z 22014KT 9999 FEW050 BKN060 19/08 Q1019 NOSIG